createdAt,value
2023-01-22T00:00:58.903Z,127.67
2023-01-22T00:04:04.818Z,128.29
2023-01-22T00:07:12.939Z,127.76
2023-01-22T00:10:19.868Z,130.91
2023-01-22T00:13:29.690Z,132.08
2023-01-22T00:16:41.443Z,126.68
2023-01-22T00:19:48.242Z,129.14
2023-01-22T00:22:54.018Z,125.60
2023-01-22T00:26:05.822Z,123.86
2023-01-22T00:29:11.599Z,116.36
2023-01-22T00:32:20.908Z,114.36
2023-01-22T00:35:27.050Z,110.52
2023-01-22T00:38:33.660Z,110.13
2023-01-22T00:41:41.546Z,105.95
2023-01-22T00:44:48.214Z,100.64
2023-01-22T00:47:57.517Z,98.01
2023-01-22T00:51:08.921Z,95.70
2023-01-22T00:54:15.641Z,94.35
2023-01-22T00:57:22.627Z,92.76
2023-01-22T01:00:28.803Z,92.67
2023-01-22T01:03:40.088Z,92.87
2023-01-22T01:06:45.932Z,90.59
2023-01-22T01:09:52.748Z,89.82
2023-01-22T01:12:59.574Z,89.19
2023-01-22T01:16:10.535Z,86.12
2023-01-22T01:19:20.723Z,87.03
2023-01-22T01:22:30.236Z,86.04
2023-01-22T01:25:36.082Z,84.63
2023-01-22T01:28:45.646Z,83.21
2023-01-22T01:31:53.492Z,81.62
2023-01-22T01:35:02.953Z,81.60
2023-01-22T01:38:10.509Z,78.75
2023-01-22T01:41:22.054Z,78.68
2023-01-22T01:44:28.158Z,76.41
2023-01-22T01:47:39.689Z,73.61
2023-01-22T01:51:05.492Z,69.09
2023-01-22T01:54:12.725Z,69.52
2023-01-22T01:57:27.767Z,70.55
2023-01-22T02:00:41.985Z,66.02
2023-01-22T02:03:51.059Z,63.18
2023-01-22T02:07:00.355Z,62.08
2023-01-22T02:10:11.412Z,62.20
2023-01-22T02:13:27.480Z,59.91
2023-01-22T02:16:33.941Z,60.87
2023-01-22T02:19:41.019Z,63.33
2023-01-22T02:22:50.058Z,64.21
2023-01-22T02:25:58.654Z,65.21
2023-01-22T02:29:04.600Z,66.95
2023-01-22T02:32:11.488Z,60.62
2023-01-22T02:35:17.919Z,56.83
2023-01-22T02:38:31.995Z,56.75
2023-01-22T02:41:37.921Z,56.13
2023-01-22T02:44:44.578Z,51.17
2023-01-22T02:47:51.490Z,49.37
2023-01-22T02:50:58.945Z,50.81
2023-01-22T02:54:08.101Z,49.60
2023-01-22T02:57:14.769Z,49.44
2023-01-22T03:00:21.434Z,47.98
2023-01-22T03:03:28.208Z,46.98
2023-01-22T03:06:34.121Z,47.27
2023-01-22T03:09:44.460Z,45.91
2023-01-22T03:13:04.008Z,48.54
2023-01-22T03:16:23.795Z,53.65
2023-01-22T03:19:42.850Z,45.54
2023-01-22T03:22:55.885Z,42.90
2023-01-22T03:26:05.521Z,41.81
2023-01-22T03:29:12.272Z,41.49
2023-01-22T03:32:19.323Z,41.72
2023-01-22T03:35:26.757Z,40.47
2023-01-22T03:38:50.033Z,41.25
2023-01-22T03:42:02.467Z,37.84
2023-01-22T03:45:11.169Z,38.43
2023-01-22T03:48:17.759Z,36.28
2023-01-22T03:51:29.059Z,33.39
2023-01-22T03:54:38.644Z,34.26
2023-01-22T03:57:48.773Z,33.27
2023-01-22T04:00:57.874Z,35.08
2023-01-22T04:04:04.247Z,35.64
2023-01-22T04:07:12.150Z,37.68
2023-01-22T04:10:20.415Z,32.76
2023-01-22T04:13:32.931Z,31.47
2023-01-22T04:16:39.789Z,38.71
2023-01-22T04:20:19.376Z,48.05
2023-01-22T04:23:37.325Z,37.84
2023-01-22T04:26:43.986Z,33.26
2023-01-22T04:29:54.322Z,28.76
2023-01-22T04:33:03.409Z,23.32
2023-01-22T04:36:18.290Z,22.19
2023-01-22T04:39:25.232Z,20.47
2023-01-22T04:42:31.203Z,20.99
2023-01-22T04:45:41.995Z,20.95
2023-01-22T04:48:48.425Z,20.83
2023-01-22T04:51:56.399Z,19.46
2023-01-22T04:55:03.719Z,27.88
2023-01-22T04:58:21.099Z,40.98
2023-01-22T05:01:29.931Z,28.90
2023-01-22T05:04:38.226Z,24.76
2023-01-22T05:07:44.187Z,38.35
2023-01-22T05:10:51.184Z,28.51
2023-01-22T05:14:03.300Z,22.00
2023-01-22T05:17:13.279Z,17.48
2023-01-22T05:20:20.924Z,19.38
2023-01-22T05:23:27.874Z,19.36
2023-01-22T05:26:34.486Z,19.74
2023-01-22T05:29:50.244Z,19.63
2023-01-22T05:33:06.494Z,20.07
2023-01-22T05:36:15.254Z,20.87
2023-01-22T05:39:23.976Z,21.59
2023-01-22T05:42:33.632Z,21.19
2023-01-22T05:45:40.360Z,26.33
2023-01-22T05:49:15.775Z,22.98
2023-01-22T05:52:21.576Z,22.39
2023-01-22T05:55:28.222Z,23.31
2023-01-22T05:58:35.152Z,23.61
2023-01-22T06:01:41.859Z,26.32
2023-01-22T06:04:51.194Z,25.34
2023-01-22T06:08:04.924Z,23.77
2023-01-22T06:11:20.676Z,23.71
2023-01-22T06:14:27.764Z,23.59
2023-01-22T06:17:36.223Z,23.14
2023-01-22T06:20:45.479Z,22.98
2023-01-22T06:23:51.534Z,20.88
2023-01-22T06:26:58.372Z,19.90
2023-01-22T06:30:15.229Z,19.06
2023-01-22T06:33:22.493Z,19.32
2023-01-22T06:36:32.095Z,20.40
2023-01-22T06:39:38.876Z,20.02
2023-01-22T06:42:53.396Z,21.35
2023-01-22T06:46:00.152Z,21.56
2023-01-22T06:49:27.600Z,21.82
2023-01-22T06:52:37.181Z,21.65
2023-01-22T06:55:43.406Z,21.10
2023-01-22T06:58:50.030Z,21.70
2023-01-22T07:01:55.928Z,21.27
2023-01-22T07:05:02.574Z,21.81
2023-01-22T07:08:12.428Z,22.88
2023-01-22T07:11:19.123Z,24.94
2023-01-22T07:14:36.490Z,27.18
2023-01-22T07:17:43.273Z,52.95
2023-01-22T07:20:50.179Z,33.33
2023-01-22T07:23:59.351Z,27.30
2023-01-22T07:27:05.735Z,27.77
2023-01-22T07:30:14.443Z,25.26
2023-01-22T07:33:20.727Z,25.57
2023-01-22T07:36:27.471Z,29.33
2023-01-22T07:39:35.869Z,27.85
2023-01-22T07:42:42.511Z,28.54
2023-01-22T07:45:48.611Z,27.32
2023-01-22T07:48:55.637Z,31.53
2023-01-22T07:52:01.861Z,32.40
2023-01-22T07:55:12.845Z,30.29
2023-01-22T07:58:18.763Z,29.71
2023-01-22T08:01:25.724Z,28.32
2023-01-22T08:04:31.870Z,27.60
2023-01-22T08:07:38.941Z,31.75
2023-01-22T08:10:48.315Z,36.40
2023-01-22T08:13:55.109Z,58.40
2023-01-22T08:17:01.029Z,42.98
2023-01-22T08:20:09.904Z,39.97
2023-01-22T08:23:18.117Z,49.24
2023-01-22T08:26:27.460Z,41.05
2023-01-22T08:29:33.343Z,33.72
2023-01-22T08:32:41.438Z,41.73
2023-01-22T08:35:48.270Z,46.00
2023-01-22T08:38:54.802Z,48.41
2023-01-22T08:42:03.157Z,50.14
2023-01-22T08:45:11.919Z,56.16
2023-01-22T08:48:17.939Z,42.44
2023-01-22T08:51:25.323Z,30.57
2023-01-22T08:54:32.550Z,28.44
2023-01-22T08:57:42.017Z,28.47
2023-01-22T09:00:47.878Z,29.93
2023-01-22T09:03:55.095Z,30.96
2023-01-22T09:07:00.908Z,35.46
2023-01-22T09:10:10.929Z,35.43
2023-01-22T09:13:19.534Z,30.26
2023-01-22T09:16:26.613Z,31.86
2023-01-22T09:19:34.103Z,33.36
2023-01-22T09:22:40.869Z,32.28
2023-01-22T09:25:47.225Z,45.14
2023-01-22T09:28:58.261Z,47.37
2023-01-22T09:32:04.306Z,39.03
2023-01-22T09:35:11.901Z,44.76
2023-01-22T09:38:19.017Z,36.36
2023-01-22T09:41:34.222Z,37.27
2023-01-22T09:44:50.407Z,37.01
2023-01-22T09:48:04.339Z,40.18
2023-01-22T09:51:13.124Z,35.89
2023-01-22T09:54:20.072Z,36.87
2023-01-22T09:57:31.771Z,37.06
2023-01-22T10:00:47.367Z,62.52
2023-01-22T10:04:02.807Z,38.04
2023-01-22T10:07:28.721Z,37.53
2023-01-22T10:10:37.475Z,57.23
2023-01-22T10:13:44.368Z,46.63
2023-01-22T10:16:53.007Z,43.42
2023-01-22T10:20:07.439Z,55.65
2023-01-22T10:23:22.834Z,43.12
2023-01-22T10:26:40.403Z,42.99
2023-01-22T10:30:01.093Z,41.90
2023-01-22T10:33:20.414Z,41.33
2023-01-22T10:36:26.266Z,39.73
2023-01-22T10:39:44.827Z,41.09
2023-01-22T10:43:03.649Z,43.92
2023-01-22T10:46:21.421Z,43.28
2023-01-22T10:49:32.951Z,52.71
2023-01-22T10:52:46.984Z,32.90
2023-01-22T10:56:01.149Z,45.92
2023-01-22T10:59:26.331Z,51.23
2023-01-22T11:02:37.651Z,46.97
2023-01-22T11:05:54.757Z,45.72
2023-01-22T11:09:14.959Z,42.35
2023-01-22T11:12:31.853Z,36.88
2023-01-22T11:15:53.787Z,46.06
2023-01-22T11:19:09.144Z,38.85
2023-01-22T11:22:38.092Z,36.38
2023-01-22T11:25:56.207Z,35.32
2023-01-22T11:29:18.010Z,38.08
2023-01-22T11:32:53.821Z,44.20
2023-01-22T11:36:10.201Z,37.79
2023-01-22T11:39:47.107Z,34.28
2023-01-22T11:43:18.990Z,41.63
2023-01-22T11:46:53.729Z,42.80
2023-01-22T11:50:20.642Z,51.89
2023-01-22T11:54:15.219Z,45.87
2023-01-22T11:57:37.152Z,36.11
2023-01-22T12:01:00.080Z,46.64
2023-01-22T12:04:43.168Z,49.14
2023-01-22T12:08:19.014Z,37.06
2023-01-22T12:11:44.556Z,65.72
2023-01-22T12:15:25.342Z,46.00
2023-01-22T12:19:36.643Z,45.84
2023-01-22T12:22:53.676Z,67.96
2023-01-22T12:26:09.658Z,47.35
2023-01-22T12:29:30.786Z,51.89
2023-01-22T12:32:45.165Z,63.72
2023-01-22T12:35:57.959Z,47.18
2023-01-22T12:39:19.724Z,51.21
2023-01-22T12:42:40.303Z,39.40
2023-01-22T12:45:57.777Z,40.43
2023-01-22T12:49:13.195Z,43.91
2023-01-22T12:52:39.537Z,39.54
2023-01-22T12:55:46.158Z,38.89
2023-01-22T12:59:00.941Z,45.48
2023-01-22T13:02:26.841Z,40.27
2023-01-22T13:05:47.246Z,50.39
2023-01-22T13:08:53.899Z,44.19
2023-01-22T13:12:11.539Z,43.80
2023-01-22T13:15:25.759Z,45.83
2023-01-22T13:18:36.852Z,51.67
2023-01-22T13:21:47.284Z,45.94
2023-01-22T13:24:55.776Z,42.30
2023-01-22T13:28:04.847Z,46.72
2023-01-22T13:31:18.862Z,42.46
2023-01-22T13:34:26.432Z,45.88
2023-01-22T13:37:38.958Z,43.46
2023-01-22T13:40:51.323Z,58.52
2023-01-22T13:43:58.673Z,52.27
2023-01-22T13:47:07.577Z,74.17
2023-01-22T13:50:24.683Z,52.86
2023-01-22T13:53:44.546Z,48.62
2023-01-22T13:56:50.788Z,58.17
2023-01-22T14:00:01.884Z,68.54
2023-01-22T14:03:30.172Z,72.79
2023-01-22T14:06:49.793Z,58.14
2023-01-22T14:10:00.423Z,67.92
2023-01-22T14:13:11.167Z,60.46
2023-01-22T14:16:18.323Z,62.99
2023-01-22T14:19:24.986Z,75.07
2023-01-22T14:22:30.726Z,50.85
2023-01-22T14:25:45.658Z,51.63
2023-01-22T14:28:51.496Z,64.44
2023-01-22T14:31:58.241Z,86.67
2023-01-22T14:35:04.612Z,59.81
2023-01-22T14:38:11.233Z,67.27
2023-01-22T14:41:19.757Z,101.17
2023-01-22T14:44:26.958Z,58.05
2023-01-22T14:47:33.083Z,70.64
2023-01-22T14:50:42.240Z,61.82
2023-01-22T14:53:48.080Z,67.80
2023-01-22T14:56:58.474Z,83.23
2023-01-22T15:00:10.479Z,50.80
2023-01-22T15:03:17.191Z,76.67
2023-01-22T15:06:23.181Z,86.48
2023-01-22T15:09:30.309Z,65.95
2023-01-22T15:12:39.203Z,74.58
2023-01-22T15:15:47.549Z,53.04
2023-01-22T15:18:58.547Z,157.62
2023-01-22T15:22:05.542Z,253.09
2023-01-22T15:25:12.383Z,121.22
2023-01-22T15:28:21.788Z,290.53
2023-01-22T15:31:27.788Z,173.43
2023-01-22T15:53:59.594Z,108.12
2023-01-22T15:57:09.191Z,74.17
2023-01-22T16:04:32.559Z,63.61
2023-01-22T16:07:39.384Z,109.24
2023-01-22T16:30:43.187Z,146.55
2023-01-22T16:37:41.775Z,84.41
2023-01-22T17:27:22.436Z,75.54
2023-01-22T17:57:36.648Z,88.23
2023-01-22T18:00:43.632Z,86.85
2023-01-22T18:03:51.256Z,85.75
2023-01-22T20:35:47.329Z,44.36
2023-01-22T20:46:41.366Z,48.94
2023-01-22T20:57:35.284Z,51.59
2023-01-22T21:00:42.304Z,46.19
2023-01-22T21:03:50.791Z,56.35
2023-01-22T21:06:57.572Z,54.37
2023-01-22T21:25:20.920Z,52.13
2023-01-22T21:28:26.697Z,54.04
2023-01-22T21:31:34.124Z,65.55
2023-01-22T21:34:40.812Z,54.26
2023-01-22T21:37:47.522Z,50.40
2023-01-22T21:40:55.977Z,47.56
2023-01-22T21:44:15.089Z,53.72
2023-01-22T21:47:20.933Z,48.88
2023-01-22T21:50:27.542Z,54.50
2023-01-22T21:53:33.301Z,54.56
2023-01-22T21:56:42.909Z,55.10
2023-01-22T21:59:48.753Z,70.14
2023-01-22T22:02:55.745Z,79.49
2023-01-22T22:06:02.521Z,114.56
2023-01-22T22:09:15.111Z,133.41
2023-01-22T22:12:23.833Z,122.46
2023-01-22T22:15:30.501Z,77.44
2023-01-22T22:18:36.941Z,54.79
2023-01-22T22:21:44.575Z,43.91
2023-01-22T22:24:50.583Z,39.49
2023-01-22T22:28:00.170Z,38.42
2023-01-22T22:31:08.565Z,40.61
2023-01-22T22:34:15.237Z,42.21
2023-01-22T22:37:21.041Z,42.23
2023-01-22T22:40:27.620Z,40.32
2023-01-22T22:43:41.434Z,42.51
2023-01-22T22:46:48.010Z,42.47
2023-01-22T22:49:54.213Z,48.27
2023-01-22T22:53:02.334Z,77.05
2023-01-22T22:56:10.228Z,83.16
2023-01-22T22:59:21.318Z,75.35
2023-01-22T23:02:27.146Z,75.51
2023-01-22T23:05:41.357Z,75.58
2023-01-22T23:08:52.359Z,76.74
2023-01-22T23:12:03.408Z,68.01
2023-01-22T23:15:13.415Z,59.73
2023-01-22T23:18:20.656Z,51.52
2023-01-22T23:21:29.673Z,50.00
2023-01-22T23:24:36.264Z,52.03
2023-01-22T23:27:42.031Z,54.36
2023-01-22T23:30:51.539Z,47.12
2023-01-22T23:33:58.412Z,63.52
2023-01-22T23:37:05.020Z,47.73
2023-01-22T23:40:13.182Z,37.36
2023-01-22T23:51:07.682Z,53.76
2023-01-22T23:54:14.441Z,89.72
